createdAt,value
2022-08-26T00:01:03.537Z,52.38
2022-08-26T00:03:31.381Z,52.30
2022-08-26T00:05:59.083Z,52.46
2022-08-26T00:08:26.388Z,52.20
2022-08-26T00:10:54.124Z,52.15
2022-08-26T00:13:21.425Z,52.10
2022-08-26T00:15:50.319Z,52.76
2022-08-26T00:18:22.175Z,52.53
2022-08-26T00:20:50.293Z,52.88
2022-08-26T00:23:17.981Z,52.57
2022-08-26T00:25:45.309Z,52.81
2022-08-26T00:28:12.765Z,52.93
2022-08-26T00:30:41.485Z,52.77
2022-08-26T00:33:09.665Z,53.19
2022-08-26T00:35:38.130Z,53.46
2022-08-26T00:38:11.524Z,53.11
2022-08-26T00:40:43.047Z,54.03
2022-08-26T00:43:10.753Z,53.48
2022-08-26T00:45:40.494Z,53.61
2022-08-26T00:48:08.403Z,53.81
2022-08-26T00:50:40.871Z,53.58
2022-08-26T00:53:24.122Z,53.48
2022-08-26T00:56:05.734Z,53.63
2022-08-26T00:58:34.100Z,53.71
2022-08-26T01:01:01.883Z,53.98
2022-08-26T01:03:29.548Z,53.68
2022-08-26T01:05:57.230Z,54.28
2022-08-26T01:08:25.136Z,54.27
2022-08-26T01:10:52.440Z,54.08
2022-08-26T01:13:23.316Z,54.46
2022-08-26T01:15:52.447Z,54.64
2022-08-26T01:18:20.609Z,54.62
2022-08-26T01:20:50.839Z,55.26
2022-08-26T01:23:18.610Z,55.21
2022-08-26T01:25:51.790Z,55.73
2022-08-26T01:28:21.781Z,56.12
2022-08-26T01:30:49.266Z,56.37
2022-08-26T01:33:17.860Z,55.74
2022-08-26T01:35:46.382Z,55.66
2022-08-26T01:38:16.243Z,55.42
2022-08-26T01:40:44.138Z,55.51
2022-08-26T01:43:14.773Z,55.02
2022-08-26T01:45:42.568Z,54.79
2022-08-26T01:48:11.699Z,54.69
2022-08-26T01:50:39.295Z,55.18
2022-08-26T01:53:08.019Z,55.29
2022-08-26T01:55:37.181Z,55.55
2022-08-26T01:58:17.609Z,55.37
2022-08-26T02:00:46.262Z,55.60
2022-08-26T02:03:17.133Z,55.13
2022-08-26T02:05:44.861Z,55.40
2022-08-26T02:08:22.995Z,55.21
2022-08-26T02:10:54.672Z,55.01
2022-08-26T02:13:22.677Z,55.12
2022-08-26T02:15:52.310Z,55.27
2022-08-26T02:18:20.126Z,54.93
2022-08-26T02:20:47.856Z,54.83
2022-08-26T02:23:18.985Z,55.07
2022-08-26T02:25:54.105Z,55.23
2022-08-26T02:28:21.508Z,55.30
2022-08-26T02:30:55.641Z,55.54
2022-08-26T02:33:23.025Z,55.81
2022-08-26T02:35:50.251Z,55.51
2022-08-26T02:38:18.359Z,55.12
2022-08-26T02:40:45.615Z,55.07
2022-08-26T02:43:15.453Z,54.70
2022-08-26T02:45:43.052Z,54.63
2022-08-26T02:48:11.830Z,54.86
2022-08-26T02:50:39.679Z,55.12
2022-08-26T02:53:07.772Z,55.20
2022-08-26T02:55:35.440Z,55.16
2022-08-26T02:58:02.961Z,55.16
2022-08-26T03:00:31.424Z,55.55
2022-08-26T03:02:59.013Z,55.39
2022-08-26T03:05:26.375Z,55.27
2022-08-26T03:07:53.987Z,55.58
2022-08-26T03:10:21.437Z,55.68
2022-08-26T03:12:48.826Z,55.77
2022-08-26T03:15:18.140Z,55.79
2022-08-26T03:17:46.325Z,55.61
2022-08-26T03:20:13.789Z,55.49
2022-08-26T03:22:44.907Z,55.58
2022-08-26T03:25:14.032Z,55.55
2022-08-26T03:27:42.976Z,55.49
2022-08-26T03:30:29.633Z,55.52
2022-08-26T03:32:57.207Z,55.41
2022-08-26T03:35:25.771Z,55.40
2022-08-26T03:37:53.595Z,55.19
2022-08-26T03:40:21.024Z,55.76
2022-08-26T03:42:50.044Z,55.28
2022-08-26T03:45:17.983Z,55.65
2022-08-26T03:47:45.933Z,55.73
2022-08-26T03:50:16.607Z,55.49
2022-08-26T03:52:51.557Z,55.38
2022-08-26T03:55:19.108Z,55.92
2022-08-26T03:57:51.258Z,56.09
2022-08-26T04:00:19.096Z,55.67
2022-08-26T04:02:48.690Z,55.59
2022-08-26T04:05:17.524Z,55.36
2022-08-26T04:07:45.329Z,55.69
2022-08-26T04:10:13.985Z,55.58
2022-08-26T04:12:42.573Z,55.41
2022-08-26T04:15:11.483Z,55.61
2022-08-26T04:17:39.103Z,55.44
2022-08-26T04:20:06.962Z,55.31
2022-08-26T04:22:34.191Z,55.12
2022-08-26T04:25:02.391Z,54.94
2022-08-26T04:27:29.683Z,54.73
2022-08-26T04:29:57.334Z,54.78
2022-08-26T04:32:25.306Z,54.66
2022-08-26T04:34:52.550Z,54.67
2022-08-26T04:37:20.207Z,54.74
2022-08-26T04:39:52.790Z,54.60
2022-08-26T04:42:25.841Z,54.79
2022-08-26T04:44:53.741Z,55.27
2022-08-26T04:47:21.108Z,55.17
2022-08-26T04:49:48.374Z,55.07
2022-08-26T04:52:15.979Z,54.77
2022-08-26T04:54:43.388Z,54.53
2022-08-26T04:57:11.143Z,54.41
2022-08-26T04:59:39.529Z,54.41
2022-08-26T05:02:07.291Z,54.03
2022-08-26T05:04:34.623Z,54.19
2022-08-26T05:07:02.687Z,53.95
2022-08-26T05:09:30.389Z,53.61
2022-08-26T05:11:57.840Z,52.15
2022-08-26T05:14:26.624Z,51.04
2022-08-26T05:16:54.015Z,51.02
2022-08-26T05:19:21.300Z,51.74
2022-08-26T05:21:49.359Z,51.56
2022-08-26T05:24:17.160Z,51.13
2022-08-26T05:26:45.270Z,50.83
2022-08-26T05:29:12.999Z,50.72
2022-08-26T05:31:40.332Z,51.01
2022-08-26T05:34:08.400Z,50.82
2022-08-26T05:36:36.956Z,50.10
2022-08-26T05:39:05.193Z,48.90
2022-08-26T05:41:34.259Z,48.02
2022-08-26T05:44:05.918Z,46.74
2022-08-26T05:46:33.336Z,44.88
2022-08-26T05:49:01.770Z,43.88
2022-08-26T05:51:30.554Z,44.10
2022-08-26T05:53:58.716Z,43.50
2022-08-26T05:56:27.776Z,44.09
2022-08-26T05:58:56.027Z,44.48
2022-08-26T06:01:26.490Z,44.24
2022-08-26T06:03:56.315Z,45.16
2022-08-26T06:06:27.291Z,45.87
2022-08-26T06:08:59.099Z,45.96
2022-08-26T06:11:26.912Z,46.28
2022-08-26T06:13:54.631Z,46.21
2022-08-26T06:16:23.379Z,46.11
2022-08-26T06:18:51.753Z,46.57
2022-08-26T06:21:18.928Z,46.07
2022-08-26T06:24:06.142Z,45.38
2022-08-26T06:26:33.686Z,44.76
2022-08-26T06:29:01.688Z,44.43
2022-08-26T06:31:34.932Z,44.14
2022-08-26T06:34:05.251Z,44.78
2022-08-26T06:36:37.877Z,43.68
2022-08-26T06:39:06.294Z,44.16
2022-08-26T06:41:34.520Z,44.52
2022-08-26T06:44:02.517Z,45.00
2022-08-26T06:46:30.124Z,41.38
2022-08-26T06:49:00.651Z,41.37
2022-08-26T06:51:29.023Z,42.03
2022-08-26T06:53:59.216Z,41.66
2022-08-26T06:56:29.694Z,41.49
2022-08-26T06:58:57.328Z,41.51
2022-08-26T07:01:26.227Z,41.37
2022-08-26T07:03:54.981Z,41.90
2022-08-26T07:06:25.325Z,40.83
2022-08-26T07:08:53.518Z,41.25
2022-08-26T07:11:21.192Z,38.19
2022-08-26T07:13:50.185Z,37.17
2022-08-26T07:16:19.337Z,38.13
2022-08-26T07:18:46.903Z,37.63
2022-08-26T07:21:15.454Z,36.74
2022-08-26T07:23:42.810Z,37.13
2022-08-26T07:26:16.329Z,37.89
2022-08-26T07:28:44.544Z,38.61
2022-08-26T07:31:12.879Z,36.79
2022-08-26T07:33:40.689Z,37.85
2022-08-26T07:36:09.086Z,37.12
2022-08-26T07:38:36.605Z,37.46
2022-08-26T07:41:03.935Z,37.29
2022-08-26T07:43:31.556Z,36.82
2022-08-26T07:45:58.857Z,36.44
2022-08-26T07:48:26.124Z,36.94
2022-08-26T07:50:53.836Z,37.09
2022-08-26T07:53:21.489Z,37.82
2022-08-26T07:55:51.648Z,37.16
2022-08-26T07:58:19.549Z,38.20
2022-08-26T08:00:47.451Z,37.33
2022-08-26T08:03:15.145Z,37.53
2022-08-26T08:05:42.488Z,37.97
2022-08-26T08:08:26.365Z,36.90
2022-08-26T08:10:55.773Z,36.96
2022-08-26T08:13:23.503Z,36.80
2022-08-26T08:15:51.039Z,37.90
2022-08-26T08:18:20.405Z,38.92
2022-08-26T08:21:04.732Z,37.00
2022-08-26T08:23:35.600Z,37.10
2022-08-26T08:26:07.281Z,37.97
2022-08-26T08:28:36.730Z,38.27
2022-08-26T08:31:04.591Z,38.68
2022-08-26T08:33:33.680Z,36.58
2022-08-26T08:36:01.523Z,36.49
2022-08-26T08:38:29.350Z,37.38
2022-08-26T08:40:56.634Z,37.13
2022-08-26T08:43:24.174Z,36.65
2022-08-26T08:45:55.014Z,36.28
2022-08-26T08:48:27.906Z,37.19
2022-08-26T08:50:56.630Z,36.57
2022-08-26T08:53:24.696Z,36.16
2022-08-26T08:56:30.880Z,35.57
2022-08-26T08:59:38.515Z,36.30
2022-08-26T09:02:10.036Z,35.96
2022-08-26T09:04:37.986Z,35.80
2022-08-26T09:07:06.900Z,35.40
2022-08-26T09:09:35.245Z,35.52
2022-08-26T09:12:03.251Z,34.66
2022-08-26T09:14:31.567Z,34.51
2022-08-26T09:16:58.897Z,35.32
2022-08-26T09:19:26.595Z,33.80
2022-08-26T09:21:57.553Z,33.79
2022-08-26T09:24:28.631Z,33.88
2022-08-26T09:26:58.940Z,34.46
2022-08-26T09:29:27.466Z,35.40
2022-08-26T09:32:22.149Z,32.91
2022-08-26T09:34:57.620Z,34.16
2022-08-26T09:37:43.486Z,33.00
2022-08-26T09:40:19.266Z,32.92
2022-08-26T09:42:48.209Z,32.98
2022-08-26T09:45:16.989Z,32.81
2022-08-26T09:47:47.310Z,34.17
2022-08-26T09:50:28.854Z,32.88
2022-08-26T09:53:13.137Z,33.08
2022-08-26T09:55:42.148Z,32.33
2022-08-26T09:58:12.764Z,31.84
2022-08-26T10:00:41.975Z,30.88
2022-08-26T10:03:11.093Z,32.08
2022-08-26T10:05:43.806Z,30.75
2022-08-26T10:08:21.029Z,30.75
2022-08-26T10:10:53.319Z,30.12
2022-08-26T10:13:21.017Z,30.26
2022-08-26T10:16:05.875Z,31.20
2022-08-26T10:18:34.794Z,29.89
2022-08-26T10:21:07.804Z,29.52
2022-08-26T10:26:22.290Z,30.52
2022-08-26T10:29:01.338Z,29.62
2022-08-26T10:31:40.160Z,29.51
2022-08-26T10:34:08.807Z,29.48
2022-08-26T10:37:10.783Z,28.83
2022-08-26T10:39:36.956Z,28.01
2022-08-26T10:42:05.554Z,27.91
2022-08-26T10:44:33.408Z,26.54
2022-08-26T10:47:02.266Z,25.73
2022-08-26T10:49:29.960Z,26.54
2022-08-26T10:52:00.887Z,25.93
2022-08-26T10:54:37.964Z,26.08
2022-08-26T10:57:15.398Z,25.33
2022-08-26T10:59:48.794Z,24.06
2022-08-26T11:02:24.989Z,24.59
2022-08-26T11:05:01.006Z,23.08
2022-08-26T11:07:35.293Z,23.29
2022-08-26T11:10:02.900Z,22.54
2022-08-26T11:12:36.415Z,23.01
2022-08-26T11:15:24.731Z,23.10
2022-08-26T11:17:52.179Z,22.95
2022-08-26T11:20:22.525Z,23.36
2022-08-26T11:22:51.561Z,23.75
2022-08-26T11:25:19.341Z,23.02
2022-08-26T11:27:52.927Z,22.73
2022-08-26T11:30:21.134Z,22.63
2022-08-26T11:32:52.873Z,23.78
2022-08-26T11:35:20.517Z,23.62
2022-08-26T11:37:47.960Z,22.63
2022-08-26T11:40:17.983Z,22.27
2022-08-26T11:42:49.653Z,22.98
2022-08-26T11:45:37.680Z,23.26
2022-08-26T11:48:21.336Z,22.97
2022-08-26T11:50:55.437Z,22.19
2022-08-26T11:53:23.185Z,22.89
2022-08-26T11:55:51.011Z,22.80
2022-08-26T11:58:21.179Z,22.62
2022-08-26T12:00:49.785Z,22.63
2022-08-26T12:03:18.537Z,22.43
2022-08-26T12:05:46.752Z,23.24
2022-08-26T12:08:16.740Z,22.20
2022-08-26T12:10:44.544Z,22.89
2022-08-26T12:13:25.087Z,22.30
2022-08-26T12:15:55.865Z,23.11
2022-08-26T12:18:28.769Z,23.48
2022-08-26T12:21:01.284Z,23.10
2022-08-26T12:23:35.150Z,23.27
2022-08-26T12:26:10.458Z,22.81
2022-08-26T12:28:55.044Z,23.42
2022-08-26T12:31:27.615Z,23.04
2022-08-26T12:33:55.417Z,23.63
2022-08-26T12:36:24.605Z,22.64
2022-08-26T12:38:53.750Z,22.92
2022-08-26T12:41:44.538Z,22.90
2022-08-26T12:44:30.726Z,22.59
2022-08-26T12:47:02.248Z,23.10
2022-08-26T12:49:29.602Z,23.14
2022-08-26T12:51:56.945Z,23.44
2022-08-26T12:54:44.527Z,24.66
2022-08-26T12:57:12.587Z,23.54
2022-08-26T12:59:40.258Z,23.47
2022-08-26T13:02:07.732Z,23.39
2022-08-26T13:04:38.256Z,23.04
2022-08-26T13:07:32.036Z,23.86
2022-08-26T13:09:59.798Z,24.04
2022-08-26T13:12:27.442Z,23.68
2022-08-26T13:14:54.940Z,23.23
2022-08-26T13:17:22.235Z,24.41
2022-08-26T13:19:49.794Z,23.67
2022-08-26T13:22:19.402Z,23.83
2022-08-26T13:24:46.718Z,23.46
2022-08-26T13:27:14.686Z,22.88
2022-08-26T13:29:42.062Z,24.03
2022-08-26T13:32:09.670Z,22.91
2022-08-26T13:34:38.355Z,23.27
2022-08-26T13:37:06.026Z,23.28
2022-08-26T13:39:33.397Z,23.27
2022-08-26T13:42:01.002Z,22.56
2022-08-26T13:44:28.300Z,22.75
2022-08-26T13:46:55.738Z,23.08
2022-08-26T13:49:23.446Z,22.58
2022-08-26T13:51:50.719Z,22.41
2022-08-26T13:54:18.038Z,22.80
2022-08-26T13:56:46.015Z,22.17
2022-08-26T13:59:13.327Z,21.72
2022-08-26T14:01:40.618Z,21.89
2022-08-26T14:04:08.730Z,22.22
2022-08-26T14:06:36.302Z,21.88
2022-08-26T14:09:04.197Z,22.15
2022-08-26T14:11:41.184Z,22.33
2022-08-26T14:14:19.199Z,21.92
2022-08-26T14:16:58.755Z,23.47
2022-08-26T14:19:30.865Z,23.19
2022-08-26T14:22:00.806Z,22.76
2022-08-26T14:24:28.963Z,22.23
2022-08-26T14:26:56.479Z,22.76
2022-08-26T14:29:24.198Z,22.37
2022-08-26T14:31:51.477Z,22.08
2022-08-26T14:34:18.813Z,22.54
2022-08-26T14:36:46.400Z,22.46
2022-08-26T14:39:14.335Z,23.33
2022-08-26T14:41:53.743Z,23.23
2022-08-26T14:44:24.036Z,22.89
2022-08-26T14:46:52.946Z,23.03
2022-08-26T14:49:20.883Z,21.88
2022-08-26T14:51:48.428Z,22.51
2022-08-26T14:54:16.464Z,23.26
2022-08-26T14:56:54.908Z,22.40
2022-08-26T14:59:26.728Z,22.56
2022-08-26T15:01:54.770Z,23.28
2022-08-26T15:04:22.727Z,22.45
2022-08-26T15:06:50.733Z,22.55
2022-08-26T15:09:18.122Z,22.20
2022-08-26T15:11:46.398Z,22.26
2022-08-26T15:14:19.364Z,23.20
2022-08-26T15:16:47.982Z,23.42
2022-08-26T15:19:16.052Z,22.75
2022-08-26T15:21:45.410Z,23.44
2022-08-26T15:24:13.314Z,23.37
2022-08-26T15:26:40.895Z,22.50
2022-08-26T15:29:08.289Z,22.43
2022-08-26T15:31:36.643Z,23.14
2022-08-26T15:34:05.888Z,22.85
2022-08-26T15:36:33.458Z,23.05
2022-08-26T15:39:01.308Z,22.97
2022-08-26T15:41:29.522Z,22.24
2022-08-26T15:43:57.388Z,23.07
2022-08-26T15:46:24.749Z,22.32
2022-08-26T15:48:52.521Z,22.30
2022-08-26T15:51:21.454Z,23.49
2022-08-26T15:53:50.695Z,23.35
2022-08-26T15:56:18.784Z,23.04
2022-08-26T15:58:46.883Z,23.26
2022-08-26T16:01:15.205Z,22.78
2022-08-26T16:03:55.723Z,23.17
2022-08-26T16:06:24.541Z,22.68
2022-08-26T16:08:51.903Z,23.55
2022-08-26T16:11:19.981Z,23.41
2022-08-26T16:13:47.843Z,23.46
2022-08-26T16:16:15.380Z,23.76
2022-08-26T16:18:43.273Z,23.38
2022-08-26T16:21:14.920Z,23.75
2022-08-26T16:23:43.271Z,23.78
2022-08-26T16:26:13.858Z,23.91
2022-08-26T16:28:41.361Z,24.08
2022-08-26T16:31:11.534Z,24.32
2022-08-26T16:33:38.967Z,24.57
2022-08-26T16:36:06.682Z,24.70
2022-08-26T16:38:34.777Z,24.92
2022-08-26T16:41:02.246Z,25.01
2022-08-26T16:43:29.616Z,25.08
2022-08-26T16:45:57.450Z,25.49
2022-08-26T16:48:25.246Z,25.81
2022-08-26T16:50:54.429Z,26.17
2022-08-26T16:53:22.150Z,26.21
2022-08-26T16:55:50.226Z,26.75
2022-08-26T16:58:17.716Z,26.63
2022-08-26T17:00:45.535Z,26.75
2022-08-26T17:03:13.089Z,27.18
2022-08-26T17:05:40.504Z,27.19
2022-08-26T17:08:08.330Z,27.17
2022-08-26T17:10:35.842Z,27.43
2022-08-26T17:13:03.294Z,27.90
2022-08-26T17:15:30.949Z,29.78
2022-08-26T17:17:58.362Z,30.85
2022-08-26T17:20:25.942Z,32.10
2022-08-26T17:22:54.390Z,32.52
2022-08-26T17:25:26.159Z,32.79
2022-08-26T17:27:53.764Z,33.10
2022-08-26T17:30:21.241Z,33.17
2022-08-26T17:32:48.779Z,33.43
2022-08-26T17:35:16.997Z,33.59
2022-08-26T17:37:44.497Z,34.16
2022-08-26T17:40:13.136Z,33.96
2022-08-26T17:42:40.717Z,34.84
2022-08-26T17:45:08.688Z,34.87
2022-08-26T17:47:36.051Z,34.95
2022-08-26T17:50:04.605Z,35.00
2022-08-26T17:52:32.002Z,35.34
2022-08-26T17:54:59.401Z,35.72
2022-08-26T17:57:27.143Z,35.83
2022-08-26T17:59:54.460Z,35.76
2022-08-26T18:02:21.865Z,35.86
2022-08-26T18:04:49.443Z,36.48
2022-08-26T18:07:16.786Z,35.46
2022-08-26T18:09:44.330Z,35.44
2022-08-26T18:12:11.998Z,35.13
2022-08-26T18:14:39.243Z,36.42
2022-08-26T18:17:06.550Z,36.45
2022-08-26T18:19:34.155Z,36.32
2022-08-26T18:22:01.493Z,36.40
2022-08-26T18:24:30.458Z,36.90
2022-08-26T18:26:58.264Z,38.83
2022-08-26T18:29:25.867Z,39.50
2022-08-26T18:31:53.146Z,38.96
2022-08-26T18:34:21.086Z,39.51
2022-08-26T18:36:48.569Z,39.51
2022-08-26T18:39:16.194Z,39.22
2022-08-26T18:41:44.817Z,39.35
2022-08-26T18:44:13.837Z,39.78
2022-08-26T18:46:41.521Z,39.68
2022-08-26T18:49:09.937Z,38.90
2022-08-26T18:51:37.975Z,39.15
2022-08-26T18:54:05.943Z,39.50
2022-08-26T18:56:34.373Z,40.23
2022-08-26T18:59:02.280Z,40.46
2022-08-26T19:01:30.167Z,39.92
2022-08-26T19:03:58.378Z,39.59
2022-08-26T19:06:26.230Z,39.65
2022-08-26T19:08:53.788Z,40.01
2022-08-26T19:11:31.610Z,39.89
2022-08-26T19:14:03.089Z,40.21
2022-08-26T19:16:30.879Z,40.32
2022-08-26T19:18:58.921Z,40.32
2022-08-26T19:21:26.632Z,40.64
2022-08-26T19:23:58.233Z,40.91
2022-08-26T19:26:26.533Z,40.11
2022-08-26T19:28:55.374Z,40.00
2022-08-26T19:31:23.080Z,40.65
2022-08-26T19:33:50.470Z,41.11
2022-08-26T19:36:22.483Z,41.49
2022-08-26T19:38:51.087Z,40.12
2022-08-26T19:41:20.542Z,41.33
2022-08-26T19:43:47.843Z,41.29
2022-08-26T19:46:17.325Z,41.79
2022-08-26T19:48:45.113Z,41.69
2022-08-26T19:51:15.784Z,41.98
2022-08-26T19:53:43.765Z,42.16
2022-08-26T19:56:11.638Z,42.07
2022-08-26T19:58:39.132Z,41.88
2022-08-26T20:01:06.625Z,41.50
2022-08-26T20:03:34.766Z,41.37
2022-08-26T20:06:05.687Z,40.68
2022-08-26T20:08:34.062Z,40.46
2022-08-26T20:11:02.199Z,40.77
2022-08-26T20:13:29.448Z,41.22
2022-08-26T20:15:56.727Z,41.08
2022-08-26T20:18:43.274Z,42.05
2022-08-26T20:21:29.580Z,41.99
2022-08-26T20:24:03.583Z,42.12
2022-08-26T20:26:32.098Z,42.20
2022-08-26T20:28:59.825Z,42.29
2022-08-26T20:31:27.293Z,42.52
2022-08-26T20:33:54.922Z,42.93
2022-08-26T20:36:23.535Z,43.17
2022-08-26T20:38:50.870Z,42.78
2022-08-26T20:41:18.407Z,43.00
2022-08-26T20:43:47.072Z,42.68
2022-08-26T20:46:17.933Z,42.92
2022-08-26T20:48:46.785Z,43.13
2022-08-26T20:51:14.491Z,43.56
2022-08-26T20:53:41.864Z,42.97
2022-08-26T20:56:09.995Z,42.18
2022-08-26T20:58:37.650Z,42.54
2022-08-26T21:01:07.990Z,42.72
2022-08-26T21:03:36.168Z,42.60
2022-08-26T21:06:03.838Z,42.42
2022-08-26T21:08:33.038Z,42.84
2022-08-26T21:11:01.862Z,42.80
2022-08-26T21:13:42.809Z,43.35
2022-08-26T21:16:16.224Z,43.12
2022-08-26T21:18:43.622Z,43.55
2022-08-26T21:21:10.939Z,43.64
2022-08-26T21:23:38.654Z,43.37
2022-08-26T21:26:09.718Z,43.66
2022-08-26T21:28:37.780Z,44.23
2022-08-26T21:31:06.256Z,43.89
2022-08-26T21:33:33.977Z,43.96
2022-08-26T21:36:01.371Z,44.27
2022-08-26T21:38:30.941Z,44.12
2022-08-26T21:40:59.099Z,44.04
2022-08-26T21:43:35.144Z,43.15
2022-08-26T21:46:11.695Z,43.46
2022-08-26T21:48:39.204Z,43.53
2022-08-26T21:51:06.782Z,43.32
2022-08-26T21:53:34.343Z,43.85
2022-08-26T21:56:08.794Z,43.67
2022-08-26T21:58:36.543Z,43.38
2022-08-26T22:01:04.776Z,43.81
2022-08-26T22:03:32.409Z,43.63
2022-08-26T22:06:12.028Z,44.09
2022-08-26T22:08:39.632Z,43.40
2022-08-26T22:11:07.043Z,43.15
2022-08-26T22:13:36.956Z,43.45
2022-08-26T22:16:05.095Z,43.19
2022-08-26T22:18:32.523Z,43.40
2022-08-26T22:21:01.110Z,43.87
2022-08-26T22:23:28.925Z,43.93
2022-08-26T22:25:56.538Z,43.81
2022-08-26T22:28:23.891Z,44.17
2022-08-26T22:30:51.406Z,43.66
2022-08-26T22:33:18.862Z,43.52
2022-08-26T22:35:47.062Z,43.60
2022-08-26T22:38:14.707Z,44.13
2022-08-26T22:40:46.033Z,44.13
2022-08-26T22:43:13.674Z,44.38
2022-08-26T22:45:43.281Z,44.73
2022-08-26T22:48:10.879Z,44.59
2022-08-26T22:50:38.458Z,44.22
2022-08-26T22:53:06.014Z,44.42
2022-08-26T22:55:33.335Z,44.08
2022-08-26T22:58:00.706Z,44.37
2022-08-26T23:00:32.163Z,43.39
2022-08-26T23:03:00.414Z,43.48
2022-08-26T23:05:28.062Z,43.71
2022-08-26T23:07:56.722Z,43.84
2022-08-26T23:10:24.055Z,43.75
2022-08-26T23:12:52.502Z,43.53
2022-08-26T23:15:20.276Z,44.08
2022-08-26T23:17:47.946Z,43.77
2022-08-26T23:20:26.563Z,43.07
2022-08-26T23:22:54.225Z,42.83
2022-08-26T23:25:21.742Z,43.12
2022-08-26T23:27:50.220Z,43.60
2022-08-26T23:30:18.836Z,44.22
2022-08-26T23:32:46.544Z,43.29
2022-08-26T23:35:14.505Z,43.22
2022-08-26T23:37:43.706Z,43.47
2022-08-26T23:40:12.599Z,43.70
2022-08-26T23:42:40.390Z,43.84
2022-08-26T23:45:08.650Z,43.89
2022-08-26T23:47:36.186Z,43.71
2022-08-26T23:50:03.974Z,43.79
2022-08-26T23:52:49.692Z,44.07
2022-08-26T23:55:17.948Z,44.18
2022-08-26T23:57:46.160Z,44.50
